PWSweather.com
Personal Weather Stations
Station Observations
GEELONGWX1
Bell Post Hill, GeelongAU

Bell Post HillGeelongAU

Lat: -38.101, Lon: 144.326

Elevation: 204

Station Type: Davis Vantage Pro2

http://www.geelongweather.com

Latest ConditionsUpdated 4:50:03 PM GMT+10:10 Friday, Oct 31, 2014
Currently Today's Max Today's Min Today's Average
Temperature 89.8°F32.1°C 91.6°F33.1°C 50.3°F10.2°C 67.1°F19.5°C
Dew Point 40.6°F4.8°C 53.8°F12.1°C 40.0°F4.4°C 45.8°F7.7°C
Winds 7.9 mph WSW12.7 kmh WSW 11.9 mph WSW19.2 kmh WSW - 3.0 mph 4.8 kmh
Wind Gusts 14.0 mph22.5 kmh 24.0 mph38.6 kmh - -
Humidity 18% 78% 17% 55%
Pressure 29.57 in1001.4 mb 30.01 in1016.3 mb 29.57 in1001.4 mb -
Hour Temp Dew Point Humidity Winds Wind Gusts Pressure Precip Precip Rate Daily Precip Total
04:50 PM 89.8°F32.1°C 40.6°F4.8°C 18% 7.9 mph WSW12.7 kmh WSW 14.0 mph22.5 kmh 29.57 in1001.4 mb 0.00 in0.0 mm 0.00 in/hr0.0 mm/hr 0.00 in0.0 mm
04:40 PM 89.7°F32.1°C 40.6°F4.8°C 18% 9.6 mph SSW15.4 kmh SSW 12.0 mph19.3 kmh 29.57 in1001.4 mb 0.00 in0.0 mm 0.00 in/hr0.0 mm/hr 0.00 in0.0 mm
04:30 PM 90.8°F32.7°C 40.0°F4.4°C 17% 9.1 mph SW14.6 kmh SW 22.0 mph35.4 kmh 29.57 in1001.4 mb 0.00 in0.0 mm 0.00 in/hr0.0 mm/hr 0.00 in0.0 mm
04:20 PM 90.8°F32.7°C 40.0°F4.4°C 17% 11.0 mph S17.7 kmh S 15.0 mph24.1 kmh 29.58 in1001.7 mb 0.00 in0.0 mm 0.00 in/hr0.0 mm/hr 0.00 in0.0 mm
04:10 PM 90.3°F32.4°C 41.1°F5.1°C 18% 8.5 mph S13.7 kmh S 14.0 mph22.5 kmh 29.58 in1001.7 mb 0.00 in0.0 mm 0.00 in/hr0.0 mm/hr 0.00 in0.0 mm
04:00 PM 89.6°F32.0°C 41.9°F5.5°C 19% 11.9 mph WSW19.2 kmh WSW 24.0 mph38.6 kmh 29.58 in1001.7 mb 0.00 in0.0 mm 0.00 in/hr0.0 mm/hr 0.00 in0.0 mm
03:50 PM 91.6°F33.1°C 42.1°F5.6°C 18% 9.8 mph W15.8 kmh W 22.0 mph35.4 kmh 29.59 in1002.0 mb 0.00 in0.0 mm 0.00 in/hr0.0 mm/hr 0.00 in0.0 mm
03:40 PM 91.5°F33.1°C 42.1°F5.6°C 18% 9.0 mph W14.5 kmh W 14.0 mph22.5 kmh 29.59 in1002.0 mb 0.00 in0.0 mm 0.00 in/hr0.0 mm/hr 0.00 in0.0 mm
03:30 PM 89.8°F32.1°C 42.0°F5.6°C 19% 4.7 mph WNW7.6 kmh WNW 10.0 mph16.1 kmh 29.60 in1002.4 mb 0.00 in0.0 mm 0.00 in/hr0.0 mm/hr 0.00 in0.0 mm
03:20 PM 90.3°F32.4°C 42.5°F5.8°C 19% 9.0 mph SW14.5 kmh SW 20.0 mph32.2 kmh 29.60 in1002.4 mb 0.00 in0.0 mm 0.00 in/hr0.0 mm/hr 0.00 in0.0 mm
03:10 PM 88.1°F31.2°C 42.0°F5.6°C 20% 7.3 mph SW11.7 kmh SW 17.0 mph27.4 kmh 29.61 in1002.7 mb 0.00 in0.0 mm 0.00 in/hr0.0 mm/hr 0.00 in0.0 mm
03:00 PM 88.7°F31.5°C 42.5°F5.8°C 20% 9.6 mph NW15.4 kmh NW 16.0 mph25.7 kmh 29.61 in1002.7 mb 0.00 in0.0 mm 0.00 in/hr0.0 mm/hr 0.00 in0.0 mm
02:50 PM 88.4°F31.3°C 42.3°F5.7°C 20% 5.3 mph WSW8.5 kmh WSW 16.0 mph25.7 kmh 29.62 in1003.0 mb 0.00 in0.0 mm 0.00 in/hr0.0 mm/hr 0.00 in0.0 mm
02:40 PM 89.3°F31.8°C 43.0°F6.1°C 20% 7.3 mph WSW11.7 kmh WSW 15.0 mph24.1 kmh 29.62 in1003.0 mb 0.00 in0.0 mm 0.00 in/hr0.0 mm/hr 0.00 in0.0 mm
02:30 PM 91.2°F32.9°C 43.2°F6.2°C 19% 8.2 mph WSW13.2 kmh WSW 19.0 mph30.6 kmh 29.63 in1003.4 mb 0.00 in0.0 mm 0.00 in/hr0.0 mm/hr 0.00 in0.0 mm
02:20 PM 91.3°F32.9°C 43.3°F6.3°C 19% 11.4 mph WSW18.3 kmh WSW 16.0 mph25.7 kmh 29.63 in1003.4 mb 0.00 in0.0 mm 0.00 in/hr0.0 mm/hr 0.00 in0.0 mm
02:10 PM 89.8°F32.1°C 42.0°F5.6°C 19% 4.5 mph SW7.2 kmh SW 15.0 mph24.1 kmh 29.65 in1004.1 mb 0.00 in0.0 mm 0.00 in/hr0.0 mm/hr 0.00 in0.0 mm
02:00 PM 89.2°F31.8°C 42.9°F6.1°C 20% 6.6 mph WNW10.6 kmh WNW 11.0 mph17.7 kmh 29.65 in1004.1 mb 0.00 in0.0 mm 0.00 in/hr0.0 mm/hr 0.00 in0.0 mm
01:50 PM 89.8°F32.1°C 42.0°F5.6°C 19% 8.9 mph WSW14.3 kmh WSW 21.0 mph33.8 kmh 29.66 in1004.4 mb 0.00 in0.0 mm 0.00 in/hr0.0 mm/hr 0.00 in0.0 mm
01:40 PM 88.1°F31.2°C 42.0°F5.6°C 20% 8.5 mph SW13.7 kmh SW 14.0 mph22.5 kmh 29.67 in1004.7 mb 0.00 in0.0 mm 0.00 in/hr0.0 mm/hr 0.00 in0.0 mm
01:30 PM 88.6°F31.4°C 42.3°F5.7°C 20% 3.6 mph WSW5.8 kmh WSW 15.0 mph24.1 kmh 29.68 in1005.1 mb 0.00 in0.0 mm 0.00 in/hr0.0 mm/hr 0.00 in0.0 mm
01:20 PM 89.2°F31.8°C 42.9°F6.1°C 20% 3.9 mph NW6.3 kmh NW 9.0 mph14.5 kmh 29.68 in1005.1 mb 0.00 in0.0 mm 0.00 in/hr0.0 mm/hr 0.00 in0.0 mm
01:10 PM 87.6°F30.9°C 41.6°F5.3°C 20% 3.2 mph WSW5.1 kmh WSW 8.0 mph12.9 kmh 29.68 in1005.1 mb 0.00 in0.0 mm 0.00 in/hr0.0 mm/hr 0.00 in0.0 mm
01:00 PM 87.0°F30.6°C 42.3°F5.7°C 21% 3.0 mph WSW4.8 kmh WSW 10.0 mph16.1 kmh 29.69 in1005.4 mb 0.00 in0.0 mm 0.00 in/hr0.0 mm/hr 0.00 in0.0 mm
12:50 PM 87.6°F30.9°C 45.2°F7.3°C 23% 2.7 mph WSW4.3 kmh WSW 6.0 mph9.7 kmh 29.69 in1005.4 mb 0.00 in0.0 mm 0.00 in/hr0.0 mm/hr 0.00 in0.0 mm
12:40 PM 86.2°F30.1°C 46.3°F7.9°C 25% 2.7 mph NW4.3 kmh NW 10.0 mph16.1 kmh 29.70 in1005.8 mb 0.00 in0.0 mm 0.00 in/hr0.0 mm/hr 0.00 in0.0 mm
12:30 PM 86.7°F30.4°C 47.7°F8.7°C 26% 7.9 mph W12.7 kmh W 12.0 mph19.3 kmh 29.70 in1005.8 mb 0.00 in0.0 mm 0.00 in/hr0.0 mm/hr 0.00 in0.0 mm
12:20 PM 84.2°F29.0°C 47.6°F8.7°C 28% 2.7 mph NW4.3 kmh NW 11.0 mph17.7 kmh 29.71 in1006.1 mb 0.00 in0.0 mm 0.00 in/hr0.0 mm/hr 0.00 in0.0 mm
12:10 PM 83.7°F28.7°C 47.1°F8.4°C 28% 4.2 mph W6.8 kmh W 10.0 mph16.1 kmh 29.71 in1006.1 mb 0.00 in0.0 mm 0.00 in/hr0.0 mm/hr 0.00 in0.0 mm
12:00 PM 83.6°F28.7°C 48.9°F9.4°C 30% 2.1 mph W3.4 kmh W 9.0 mph14.5 kmh 29.72 in1006.4 mb 0.00 in0.0 mm 0.00 in/hr0.0 mm/hr 0.00 in0.0 mm
11:50 AM 84.1°F28.9°C 48.4°F9.1°C 29% 5.6 mph W9.0 kmh W 13.0 mph20.9 kmh 29.73 in1006.8 mb 0.00 in0.0 mm 0.00 in/hr0.0 mm/hr 0.00 in0.0 mm
11:40 AM 84.3°F29.1°C 48.5°F9.2°C 29% 5.7 mph WSW9.2 kmh WSW 15.0 mph24.1 kmh 29.73 in1006.8 mb 0.00 in0.0 mm 0.00 in/hr0.0 mm/hr 0.00 in0.0 mm
11:30 AM 82.4°F28.0°C 48.7°F9.3°C 31% 3.4 mph W5.5 kmh W 9.0 mph14.5 kmh 29.74 in1007.1 mb 0.00 in0.0 mm 0.00 in/hr0.0 mm/hr 0.00 in0.0 mm
11:20 AM 81.4°F27.4°C 47.9°F8.8°C 31% 1.3 mph W2.1 kmh W 13.0 mph20.9 kmh 29.75 in1007.5 mb 0.00 in0.0 mm 0.00 in/hr0.0 mm/hr 0.00 in0.0 mm
11:10 AM 80.1°F26.7°C 49.2°F9.6°C 34% 5.6 mph NW9.0 kmh NW 12.0 mph19.3 kmh 29.75 in1007.5 mb 0.00 in0.0 mm 0.00 in/hr0.0 mm/hr 0.00 in0.0 mm
11:00 AM 78.5°F25.8°C 49.3°F9.6°C 36% 5.1 mph NW8.2 kmh NW 10.0 mph16.1 kmh 29.76 in1007.8 mb 0.00 in0.0 mm 0.00 in/hr0.0 mm/hr 0.00 in0.0 mm
10:50 AM 77.8°F25.4°C 48.7°F9.3°C 36% 5.6 mph NW9.0 kmh NW 11.0 mph17.7 kmh 29.77 in1008.1 mb 0.00 in0.0 mm 0.00 in/hr0.0 mm/hr 0.00 in0.0 mm
10:40 AM 77.6°F25.3°C 48.5°F9.2°C 36% 4.3 mph NNW6.9 kmh NNW 11.0 mph17.7 kmh 29.77 in1008.1 mb 0.00 in0.0 mm 0.00 in/hr0.0 mm/hr 0.00 in0.0 mm
10:30 AM 76.7°F24.8°C 51.3°F10.7°C 41% 4.5 mph NW7.2 kmh NW 9.0 mph14.5 kmh 29.79 in1008.8 mb 0.00 in0.0 mm 0.00 in/hr0.0 mm/hr 0.00 in0.0 mm
10:20 AM 74.9°F23.8°C 52.1°F11.2°C 45% 5.8 mph NW9.3 kmh NW 8.0 mph12.9 kmh 29.79 in1008.8 mb 0.00 in0.0 mm 0.00 in/hr0.0 mm/hr 0.00 in0.0 mm
10:10 AM 71.6°F22.0°C 52.5°F11.4°C 51% 2.8 mph NNW4.5 kmh NNW 6.0 mph9.7 kmh 29.80 in1009.1 mb 0.00 in0.0 mm 0.00 in/hr0.0 mm/hr 0.00 in0.0 mm
10:00 AM 70.6°F21.4°C 52.1°F11.2°C 52% 6.8 mph NW10.9 kmh NW 10.0 mph16.1 kmh 29.81 in1009.5 mb 0.00 in0.0 mm 0.00 in/hr0.0 mm/hr 0.00 in0.0 mm
09:50 AM 69.6°F20.9°C 53.2°F11.8°C 56% 4.8 mph NNW7.7 kmh NNW 8.0 mph12.9 kmh 29.82 in1009.8 mb 0.00 in0.0 mm 0.00 in/hr0.0 mm/hr 0.00 in0.0 mm
09:40 AM 68.2°F20.1°C 53.4°F11.9°C 59% 3.9 mph N6.3 kmh N 9.0 mph14.5 kmh 29.83 in1010.2 mb 0.00 in0.0 mm 0.00 in/hr0.0 mm/hr 0.00 in0.0 mm
09:30 AM 66.8°F19.3°C 53.8°F12.1°C 63% 3.3 mph NNW5.3 kmh NNW 6.0 mph9.7 kmh 29.84 in1010.5 mb 0.00 in0.0 mm 0.00 in/hr0.0 mm/hr 0.00 in0.0 mm
09:20 AM 65.2°F18.4°C 53.1°F11.7°C 65% 3.2 mph N5.1 kmh N 4.0 mph6.4 kmh 29.84 in1010.5 mb 0.00 in0.0 mm 0.00 in/hr0.0 mm/hr 0.00 in0.0 mm
09:10 AM 64.4°F18.0°C 53.6°F12.0°C 68% 0.3 mph NW0.5 kmh NW 2.0 mph3.2 kmh 29.85 in1010.8 mb 0.00 in0.0 mm 0.00 in/hr0.0 mm/hr 0.00 in0.0 mm
09:00 AM 63.0°F17.2°C 52.7°F11.5°C 69% 1.7 mph NNW2.7 kmh NNW 7.0 mph11.3 kmh 29.85 in1010.8 mb 0.00 in0.0 mm 0.00 in/hr0.0 mm/hr 0.00 in0.0 mm
08:50 AM 62.0°F16.7°C 52.4°F11.3°C 71% 3.5 mph NNW5.6 kmh NNW 6.0 mph9.7 kmh 29.85 in1010.8 mb 0.00 in0.0 mm 0.00 in/hr0.0 mm/hr 0.00 in0.0 mm
08:40 AM 61.3°F16.3°C 52.2°F11.2°C 72% 2.2 mph NW3.5 kmh NW 7.0 mph11.3 kmh 29.85 in1010.8 mb 0.00 in0.0 mm 0.00 in/hr0.0 mm/hr 0.00 in0.0 mm
08:30 AM 60.5°F15.8°C 52.2°F11.2°C 74% 4.3 mph NW6.9 kmh NW 7.0 mph11.3 kmh 29.85 in1010.8 mb 0.00 in0.0 mm 0.00 in/hr0.0 mm/hr 0.00 in0.0 mm
08:20 AM 59.5°F15.3°C 51.9°F11.1°C 76% 0.3 mph NW0.5 kmh NW 4.0 mph6.4 kmh 29.86 in1011.2 mb 0.00 in0.0 mm 0.00 in/hr0.0 mm/hr 0.00 in0.0 mm
08:10 AM 58.9°F14.9°C 51.3°F10.7°C 76% 4.8 mph N7.7 kmh N 8.0 mph12.9 kmh 29.87 in1011.5 mb 0.00 in0.0 mm 0.00 in/hr0.0 mm/hr 0.00 in0.0 mm
08:00 AM 57.5°F14.2°C 50.4°F10.2°C 77% 5.2 mph NW8.4 kmh NW 9.0 mph14.5 kmh 29.87 in1011.5 mb 0.00 in0.0 mm 0.00 in/hr0.0 mm/hr 0.00 in0.0 mm
07:50 AM 57.1°F13.9°C 50.0°F10.0°C 77% 5.1 mph N8.2 kmh N 7.0 mph11.3 kmh 29.88 in1011.9 mb 0.00 in0.0 mm 0.00 in/hr0.0 mm/hr 0.00 in0.0 mm
07:40 AM 56.7°F13.7°C 49.9°F9.9°C 78% 3.8 mph NW6.1 kmh NW 4.0 mph6.4 kmh 29.88 in1011.9 mb 0.00 in0.0 mm 0.00 in/hr0.0 mm/hr 0.00 in0.0 mm
07:30 AM 56.4°F13.6°C 49.6°F9.8°C 78% Calm Calm -- 29.89 in1012.2 mb 0.00 in0.0 mm 0.00 in/hr0.0 mm/hr 0.00 in0.0 mm
07:20 AM 55.9°F13.3°C 49.1°F9.5°C 78% Calm Calm -- 29.89 in1012.2 mb 0.00 in0.0 mm 0.00 in/hr0.0 mm/hr 0.00 in0.0 mm
07:10 AM 55.4°F13.0°C 48.6°F9.2°C 78% Calm Calm -- 29.89 in1012.2 mb 0.00 in0.0 mm 0.00 in/hr0.0 mm/hr 0.00 in0.0 mm
07:00 AM 55.0°F12.8°C 48.0°F8.9°C 77% Calm Calm -- 29.89 in1012.2 mb 0.00 in0.0 mm 0.00 in/hr0.0 mm/hr 0.00 in0.0 mm
06:50 AM 54.7°F12.6°C 47.6°F8.7°C 77% Calm Calm -- 29.89 in1012.2 mb 0.00 in0.0 mm 0.00 in/hr0.0 mm/hr 0.00 in0.0 mm
06:40 AM 54.1°F12.3°C 47.1°F8.4°C 77% Calm Calm -- 29.90 in1012.5 mb 0.00 in0.0 mm 0.00 in/hr0.0 mm/hr 0.00 in0.0 mm
06:30 AM 53.0°F11.7°C 46.0°F7.8°C 77% Calm Calm -- 29.90 in1012.5 mb 0.00 in0.0 mm 0.00 in/hr0.0 mm/hr 0.00 in0.0 mm
06:20 AM 51.9°F11.1°C 45.0°F7.2°C 77% Calm Calm -- 29.90 in1012.5 mb 0.00 in0.0 mm 0.00 in/hr0.0 mm/hr 0.00 in0.0 mm
06:10 AM 51.4°F10.8°C 44.4°F6.9°C 77% Calm Calm -- 29.91 in1012.9 mb 0.00 in0.0 mm 0.00 in/hr0.0 mm/hr 0.00 in0.0 mm
06:00 AM 50.9°F10.5°C 44.0°F6.7°C 77% Calm Calm -- 29.91 in1012.9 mb 0.00 in0.0 mm 0.00 in/hr0.0 mm/hr 0.00 in0.0 mm
05:50 AM 50.6°F10.3°C 43.7°F6.5°C 77% Calm Calm -- 29.91 in1012.9 mb 0.00 in0.0 mm 0.00 in/hr0.0 mm/hr 0.00 in0.0 mm
05:40 AM 50.4°F10.2°C 43.5°F6.4°C 77% Calm Calm -- 29.91 in1012.9 mb 0.00 in0.0 mm 0.00 in/hr0.0 mm/hr 0.00 in0.0 mm
05:30 AM 50.3°F10.2°C 43.4°F6.3°C 77% Calm Calm -- 29.91 in1012.9 mb 0.00 in0.0 mm 0.00 in/hr0.0 mm/hr 0.00 in0.0 mm
05:20 AM 50.3°F10.2°C 43.4°F6.3°C 77% Calm Calm -- 29.91 in1012.9 mb 0.00 in0.0 mm 0.00 in/hr0.0 mm/hr 0.00 in0.0 mm
05:10 AM 50.4°F10.2°C 43.5°F6.4°C 77% Calm Calm -- 29.91 in1012.9 mb 0.00 in0.0 mm 0.00 in/hr0.0 mm/hr 0.00 in0.0 mm
05:00 AM 50.5°F10.3°C 43.6°F6.4°C 77% Calm Calm -- 29.91 in1012.9 mb 0.00 in0.0 mm 0.00 in/hr0.0 mm/hr 0.00 in0.0 mm
04:50 AM 50.5°F10.3°C 43.6°F6.4°C 77% Calm Calm -- 29.91 in1012.9 mb 0.00 in0.0 mm 0.00 in/hr0.0 mm/hr 0.00 in0.0 mm
04:40 AM 50.5°F10.3°C 43.6°F6.4°C 77% Calm Calm -- 29.92 in1013.2 mb 0.00 in0.0 mm 0.00 in/hr0.0 mm/hr 0.00 in0.0 mm
04:30 AM 50.5°F10.3°C 43.6°F6.4°C 77% Calm Calm -- 29.91 in1012.9 mb 0.00 in0.0 mm 0.00 in/hr0.0 mm/hr 0.00 in0.0 mm
04:20 AM 50.5°F10.3°C 43.6°F6.4°C 77% Calm Calm -- 29.91 in1012.9 mb 0.00 in0.0 mm 0.00 in/hr0.0 mm/hr 0.00 in0.0 mm
04:10 AM 50.5°F10.3°C 43.6°F6.4°C 77% Calm Calm -- 29.91 in1012.9 mb 0.00 in0.0 mm 0.00 in/hr0.0 mm/hr 0.00 in0.0 mm
04:00 AM 50.6°F10.3°C 43.7°F6.5°C 77% Calm Calm -- 29.91 in1012.9 mb 0.00 in0.0 mm 0.00 in/hr0.0 mm/hr 0.00 in0.0 mm
03:50 AM 50.7°F10.4°C 43.8°F6.6°C 77% Calm Calm -- 29.92 in1013.2 mb 0.00 in0.0 mm 0.00 in/hr0.0 mm/hr 0.00 in0.0 mm
03:40 AM 50.8°F10.4°C 43.8°F6.6°C 77% Calm Calm -- 29.92 in1013.2 mb 0.00 in0.0 mm 0.00 in/hr0.0 mm/hr 0.00 in0.0 mm
03:30 AM 50.9°F10.5°C 43.9°F6.6°C 77% Calm Calm -- 29.92 in1013.2 mb 0.00 in0.0 mm 0.00 in/hr0.0 mm/hr 0.00 in0.0 mm
03:20 AM 51.0°F10.6°C 44.0°F6.7°C 77% Calm Calm -- 29.93 in1013.5 mb 0.00 in0.0 mm 0.00 in/hr0.0 mm/hr 0.00 in0.0 mm
03:10 AM 51.0°F10.6°C 44.1°F6.7°C 77% Calm Calm -- 29.93 in1013.5 mb 0.00 in0.0 mm 0.00 in/hr0.0 mm/hr 0.00 in0.0 mm
03:00 AM 51.1°F10.6°C 44.1°F6.7°C 77% Calm Calm -- 29.93 in1013.5 mb 0.00 in0.0 mm 0.00 in/hr0.0 mm/hr 0.00 in0.0 mm
02:50 AM 51.1°F10.6°C 44.1°F6.7°C 77% Calm Calm -- 29.93 in1013.5 mb 0.00 in0.0 mm 0.00 in/hr0.0 mm/hr 0.00 in0.0 mm
02:40 AM 51.0°F10.6°C 44.0°F6.7°C 77% Calm Calm -- 29.93 in1013.5 mb 0.00 in0.0 mm 0.00 in/hr0.0 mm/hr 0.00 in0.0 mm
02:30 AM 50.8°F10.4°C 43.8°F6.6°C 77% Calm Calm -- 29.94 in1013.9 mb 0.00 in0.0 mm 0.00 in/hr0.0 mm/hr 0.00 in0.0 mm
02:20 AM 50.7°F10.4°C 43.8°F6.6°C 77% Calm Calm -- 29.94 in1013.9 mb 0.00 in0.0 mm 0.00 in/hr0.0 mm/hr 0.00 in0.0 mm
02:10 AM 50.6°F10.3°C 43.7°F6.5°C 77% Calm Calm -- 29.95 in1014.2 mb 0.00 in0.0 mm 0.00 in/hr0.0 mm/hr 0.00 in0.0 mm
02:00 AM 50.5°F10.3°C 43.6°F6.4°C 77% Calm Calm -- 29.95 in1014.2 mb 0.00 in0.0 mm 0.00 in/hr0.0 mm/hr 0.00 in0.0 mm
01:50 AM 50.5°F10.3°C 43.6°F6.4°C 77% Calm Calm -- 29.95 in1014.2 mb 0.00 in0.0 mm 0.00 in/hr0.0 mm/hr 0.00 in0.0 mm
01:40 AM 50.6°F10.3°C 43.7°F6.5°C 77% Calm Calm -- 29.95 in1014.2 mb 0.00 in0.0 mm 0.00 in/hr0.0 mm/hr 0.00 in0.0 mm
01:30 AM 50.7°F10.4°C 43.8°F6.6°C 77% Calm Calm -- 29.96 in1014.6 mb 0.00 in0.0 mm 0.00 in/hr0.0 mm/hr 0.00 in0.0 mm
01:20 AM 50.8°F10.4°C 43.8°F6.6°C 77% Calm Calm -- 29.97 in1014.9 mb 0.00 in0.0 mm 0.00 in/hr0.0 mm/hr 0.00 in0.0 mm
01:10 AM 51.0°F10.6°C 44.4°F6.9°C 78% Calm Calm -- 29.97 in1014.9 mb 0.00 in0.0 mm 0.00 in/hr0.0 mm/hr 0.00 in0.0 mm
01:00 AM 51.1°F10.6°C 44.5°F6.9°C 78% Calm Calm -- 29.98 in1015.2 mb 0.00 in0.0 mm 0.00 in/hr0.0 mm/hr 0.00 in0.0 mm
12:50 AM 51.2°F10.7°C 44.6°F7.0°C 78% Calm Calm -- 29.98 in1015.2 mb 0.00 in0.0 mm 0.00 in/hr0.0 mm/hr 0.00 in0.0 mm
12:40 AM 51.4°F10.8°C 44.8°F7.1°C 78% Calm Calm -- 29.98 in1015.2 mb 0.00 in0.0 mm 0.00 in/hr0.0 mm/hr 0.00 in0.0 mm
12:30 AM 51.7°F10.9°C 45.0°F7.2°C 78% Calm Calm -- 29.99 in1015.6 mb 0.00 in0.0 mm 0.00 in/hr0.0 mm/hr 0.00 in0.0 mm
12:20 AM 51.9°F11.1°C 45.3°F7.4°C 78% Calm Calm -- 30.00 in1015.9 mb 0.00 in0.0 mm 0.00 in/hr0.0 mm/hr 0.00 in0.0 mm
12:10 AM 52.1°F11.2°C 45.5°F7.5°C 78% Calm Calm -- 30.01 in1016.3 mb 0.00 in0.0 mm 0.00 in/hr0.0 mm/hr 0.00 in0.0 mm
12:00 AM 52.5°F11.4°C 45.8°F7.7°C 78% Calm Calm -- 30.01 in1016.3 mb 0.00 in0.0 mm 0.00 in/hr0.0 mm/hr 0.00 in0.0 mm